sensor_id;sensor_type;location;lat;lon;timestamp;temperature;humidity
25410;DHT22;13339;50.840;4.346;2023-07-29T00:02:00;22.20;99.90
25410;DHT22;13339;50.840;4.346;2023-07-29T00:04:25;22.00;99.90
25410;DHT22;13339;50.840;4.346;2023-07-29T00:06:51;21.90;99.90
25410;DHT22;13339;50.840;4.346;2023-07-29T00:09:17;21.80;99.90
25410;DHT22;13339;50.840;4.346;2023-07-29T00:11:42;21.80;99.90
25410;DHT22;13339;50.840;4.346;2023-07-29T00:14:08;21.70;99.90
25410;DHT22;13339;50.840;4.346;2023-07-29T00:16:33;21.70;99.90
25410;DHT22;13339;50.840;4.346;2023-07-29T00:18:59;21.70;99.90
25410;DHT22;13339;50.840;4.346;2023-07-29T00:21:25;21.70;99.90
25410;DHT22;13339;50.840;4.346;2023-07-29T00:23:51;21.70;99.90
25410;DHT22;13339;50.840;4.346;2023-07-29T00:26:17;21.60;99.90
25410;DHT22;13339;50.840;4.346;2023-07-29T00:28:43;21.70;99.90
25410;DHT22;13339;50.840;4.346;2023-07-29T00:31:08;21.60;99.90
25410;DHT22;13339;50.840;4.346;2023-07-29T00:33:34;21.60;99.90
25410;DHT22;13339;50.840;4.346;2023-07-29T00:36:00;21.50;99.90
25410;DHT22;13339;50.840;4.346;2023-07-29T00:38:28;21.40;99.90
25410;DHT22;13339;50.840;4.346;2023-07-29T00:40:54;21.50;99.90
25410;DHT22;13339;50.840;4.346;2023-07-29T00:43:22;21.50;99.90
25410;DHT22;13339;50.840;4.346;2023-07-29T00:45:47;21.50;99.90
25410;DHT22;13339;50.840;4.346;2023-07-29T00:48:13;21.40;99.90
25410;DHT22;13339;50.840;4.346;2023-07-29T00:50:39;21.40;99.90
25410;DHT22;13339;50.840;4.346;2023-07-29T00:53:05;21.30;99.90
25410;DHT22;13339;50.840;4.346;2023-07-29T00:55:31;21.30;99.90
25410;DHT22;13339;50.840;4.346;2023-07-29T00:57:57;21.40;99.90
25410;DHT22;13339;50.840;4.346;2023-07-29T01:00:23;21.30;99.90
25410;DHT22;13339;50.840;4.346;2023-07-29T01:02:49;21.20;99.90
25410;DHT22;13339;50.840;4.346;2023-07-29T01:05:17;21.30;99.90
25410;DHT22;13339;50.840;4.346;2023-07-29T01:07:51;21.20;99.90
25410;DHT22;13339;50.840;4.346;2023-07-29T01:13:17;21.30;99.90
25410;DHT22;13339;50.840;4.346;2023-07-29T01:16:02;21.30;99.90
25410;DHT22;13339;50.840;4.346;2023-07-29T01:18:31;21.20;99.90
25410;DHT22;13339;50.840;4.346;2023-07-29T01:21:03;21.10;99.90
25410;DHT22;13339;50.840;4.346;2023-07-29T01:23:30;21.10;99.90
25410;DHT22;13339;50.840;4.346;2023-07-29T01:25:56;21.20;99.90
25410;DHT22;13339;50.840;4.346;2023-07-29T01:28:22;21.20;99.90
25410;DHT22;13339;50.840;4.346;2023-07-29T01:30:51;21.10;99.90
25410;DHT22;13339;50.840;4.346;2023-07-29T01:33:25;21.20;99.90
25410;DHT22;13339;50.840;4.346;2023-07-29T01:35:57;21.20;99.90
25410;DHT22;13339;50.840;4.346;2023-07-29T01:38:33;21.20;99.90
25410;DHT22;13339;50.840;4.346;2023-07-29T01:41:01;21.10;99.90
25410;DHT22;13339;50.840;4.346;2023-07-29T01:43:29;21.10;99.90
25410;DHT22;13339;50.840;4.346;2023-07-29T01:45:55;21.00;99.90
25410;DHT22;13339;50.840;4.346;2023-07-29T01:48:21;21.00;99.90
25410;DHT22;13339;50.840;4.346;2023-07-29T01:50:47;21.00;99.90
25410;DHT22;13339;50.840;4.346;2023-07-29T01:53:12;20.90;99.90
25410;DHT22;13339;50.840;4.346;2023-07-29T01:55:39;21.00;99.90
25410;DHT22;13339;50.840;4.346;2023-07-29T01:58:04;21.00;99.90
25410;DHT22;13339;50.840;4.346;2023-07-29T02:00:30;21.00;99.90
25410;DHT22;13339;50.840;4.346;2023-07-29T02:02:55;21.00;99.90
25410;DHT22;13339;50.840;4.346;2023-07-29T02:05:21;21.00;99.90
25410;DHT22;13339;50.840;4.346;2023-07-29T02:07:47;21.00;99.90
25410;DHT22;13339;50.840;4.346;2023-07-29T02:10:12;20.90;99.90
25410;DHT22;13339;50.840;4.346;2023-07-29T02:12:38;20.90;99.90
25410;DHT22;13339;50.840;4.346;2023-07-29T02:15:04;20.80;99.90
25410;DHT22;13339;50.840;4.346;2023-07-29T02:17:30;20.60;99.90
25410;DHT22;13339;50.840;4.346;2023-07-29T02:19:56;20.60;99.90
25410;DHT22;13339;50.840;4.346;2023-07-29T02:22:22;20.70;99.90
25410;DHT22;13339;50.840;4.346;2023-07-29T02:24:47;20.70;99.90
25410;DHT22;13339;50.840;4.346;2023-07-29T02:27:13;20.60;99.90
25410;DHT22;13339;50.840;4.346;2023-07-29T02:29:38;20.70;99.90
25410;DHT22;13339;50.840;4.346;2023-07-29T02:32:04;20.60;99.90
25410;DHT22;13339;50.840;4.346;2023-07-29T02:34:30;20.60;99.90
25410;DHT22;13339;50.840;4.346;2023-07-29T02:36:56;20.70;99.90
25410;DHT22;13339;50.840;4.346;2023-07-29T02:39:21;20.50;99.90
25410;DHT22;13339;50.840;4.346;2023-07-29T02:41:47;20.50;99.90
25410;DHT22;13339;50.840;4.346;2023-07-29T02:44:12;20.50;99.90
25410;DHT22;13339;50.840;4.346;2023-07-29T02:46:38;20.60;99.90
25410;DHT22;13339;50.840;4.346;2023-07-29T02:49:04;20.60;99.90
25410;DHT22;13339;50.840;4.346;2023-07-29T02:51:32;20.60;99.90
25410;DHT22;13339;50.840;4.346;2023-07-29T02:53:58;20.60;99.90
25410;DHT22;13339;50.840;4.346;2023-07-29T02:56:23;20.60;99.90
25410;DHT22;13339;50.840;4.346;2023-07-29T02:58:49;20.60;99.90
25410;DHT22;13339;50.840;4.346;2023-07-29T03:01:17;20.60;99.90
25410;DHT22;13339;50.840;4.346;2023-07-29T03:03:43;20.50;99.90
25410;DHT22;13339;50.840;4.346;2023-07-29T03:06:10;20.50;99.90
25410;DHT22;13339;50.840;4.346;2023-07-29T03:08:36;20.60;99.90
25410;DHT22;13339;50.840;4.346;2023-07-29T03:11:06;20.50;99.90
25410;DHT22;13339;50.840;4.346;2023-07-29T03:13:33;20.50;99.90
25410;DHT22;13339;50.840;4.346;2023-07-29T03:16:12;20.50;99.90
25410;DHT22;13339;50.840;4.346;2023-07-29T03:18:39;20.50;99.90
25410;DHT22;13339;50.840;4.346;2023-07-29T03:21:05;20.40;99.90
25410;DHT22;13339;50.840;4.346;2023-07-29T03:23:33;20.40;99.90
25410;DHT22;13339;50.840;4.346;2023-07-29T03:26:00;20.30;99.90
25410;DHT22;13339;50.840;4.346;2023-07-29T03:28:27;20.20;99.90
25410;DHT22;13339;50.840;4.346;2023-07-29T03:30:54;20.20;99.90
25410;DHT22;13339;50.840;4.346;2023-07-29T03:33:19;20.20;99.90
25410;DHT22;13339;50.840;4.346;2023-07-29T03:35:45;20.30;99.90
25410;DHT22;13339;50.840;4.346;2023-07-29T03:38:11;20.30;99.90
25410;DHT22;13339;50.840;4.346;2023-07-29T03:40:40;20.30;99.90
25410;DHT22;13339;50.840;4.346;2023-07-29T03:43:06;20.40;99.90
25410;DHT22;13339;50.840;4.346;2023-07-29T03:45:33;20.40;99.90
25410;DHT22;13339;50.840;4.346;2023-07-29T03:47:58;20.40;99.90
25410;DHT22;13339;50.840;4.346;2023-07-29T03:50:24;20.40;99.90
25410;DHT22;13339;50.840;4.346;2023-07-29T03:52:50;20.50;99.90
25410;DHT22;13339;50.840;4.346;2023-07-29T03:55:16;20.40;99.90
25410;DHT22;13339;50.840;4.346;2023-07-29T03:57:41;20.40;99.90
25410;DHT22;13339;50.840;4.346;2023-07-29T04:00:07;20.30;99.90
25410;DHT22;13339;50.840;4.346;2023-07-29T04:02:34;20.30;99.90
25410;DHT22;13339;50.840;4.346;2023-07-29T04:05:03;20.30;99.90
25410;DHT22;13339;50.840;4.346;2023-07-29T04:07:29;20.30;99.90
25410;DHT22;13339;50.840;4.346;2023-07-29T04:09:55;20.30;99.90
25410;DHT22;13339;50.840;4.346;2023-07-29T04:12:21;20.40;99.90
25410;DHT22;13339;50.840;4.346;2023-07-29T04:14:47;20.40;99.90
25410;DHT22;13339;50.840;4.346;2023-07-29T04:17:12;20.40;99.90
25410;DHT22;13339;50.840;4.346;2023-07-29T04:19:38;20.40;99.90
25410;DHT22;13339;50.840;4.346;2023-07-29T04:22:04;20.30;99.90
25410;DHT22;13339;50.840;4.346;2023-07-29T04:24:29;20.40;99.90
25410;DHT22;13339;50.840;4.346;2023-07-29T04:26:55;20.40;99.90
25410;DHT22;13339;50.840;4.346;2023-07-29T04:29:21;20.50;99.90
25410;DHT22;13339;50.840;4.346;2023-07-29T04:31:48;20.30;99.90
25410;DHT22;13339;50.840;4.346;2023-07-29T04:34:14;20.40;99.90
25410;DHT22;13339;50.840;4.346;2023-07-29T04:36:39;20.40;99.90
25410;DHT22;13339;50.840;4.346;2023-07-29T04:39:05;20.30;99.90
25410;DHT22;13339;50.840;4.346;2023-07-29T04:41:31;20.20;99.90
25410;DHT22;13339;50.840;4.346;2023-07-29T04:43:56;20.20;99.90
25410;DHT22;13339;50.840;4.346;2023-07-29T04:46:22;20.10;99.90
25410;DHT22;13339;50.840;4.346;2023-07-29T04:48:47;20.10;99.90
25410;DHT22;13339;50.840;4.346;2023-07-29T04:51:13;20.10;99.90
25410;DHT22;13339;50.840;4.346;2023-07-29T04:53:38;20.10;99.90
25410;DHT22;13339;50.840;4.346;2023-07-29T04:56:04;20.00;99.90
25410;DHT22;13339;50.840;4.346;2023-07-29T04:58:30;20.00;99.90
25410;DHT22;13339;50.840;4.346;2023-07-29T05:01:00;19.90;99.90
25410;DHT22;13339;50.840;4.346;2023-07-29T05:03:25;19.90;99.90
25410;DHT22;13339;50.840;4.346;2023-07-29T05:05:51;19.90;99.90
25410;DHT22;13339;50.840;4.346;2023-07-29T05:08:18;20.00;99.90
25410;DHT22;13339;50.840;4.346;2023-07-29T05:10:44;20.00;99.90
25410;DHT22;13339;50.840;4.346;2023-07-29T05:13:10;20.10;99.90
25410;DHT22;13339;50.840;4.346;2023-07-29T05:15:35;20.00;99.90
25410;DHT22;13339;50.840;4.346;2023-07-29T05:18:01;20.00;99.90
25410;DHT22;13339;50.840;4.346;2023-07-29T05:20:26;20.00;99.90
25410;DHT22;13339;50.840;4.346;2023-07-29T05:22:52;20.20;99.90
25410;DHT22;13339;50.840;4.346;2023-07-29T05:25:18;20.10;99.90
25410;DHT22;13339;50.840;4.346;2023-07-29T05:27:43;20.20;99.90
25410;DHT22;13339;50.840;4.346;2023-07-29T05:30:09;20.20;99.90
25410;DHT22;13339;50.840;4.346;2023-07-29T05:32:34;20.30;99.90
25410;DHT22;13339;50.840;4.346;2023-07-29T05:35:00;20.30;99.90
25410;DHT22;13339;50.840;4.346;2023-07-29T05:37:25;20.40;99.90
25410;DHT22;13339;50.840;4.346;2023-07-29T05:39:51;20.40;99.90
25410;DHT22;13339;50.840;4.346;2023-07-29T05:42:17;20.50;99.90
25410;DHT22;13339;50.840;4.346;2023-07-29T05:44:42;20.60;99.90
25410;DHT22;13339;50.840;4.346;2023-07-29T05:47:08;20.80;99.90
25410;DHT22;13339;50.840;4.346;2023-07-29T05:49:33;20.80;99.90
25410;DHT22;13339;50.840;4.346;2023-07-29T05:51:59;20.80;99.90
25410;DHT22;13339;50.840;4.346;2023-07-29T05:54:24;21.00;99.90
25410;DHT22;13339;50.840;4.346;2023-07-29T05:56:50;20.90;99.90
25410;DHT22;13339;50.840;4.346;2023-07-29T05:59:16;20.90;99.90
25410;DHT22;13339;50.840;4.346;2023-07-29T06:01:42;21.00;99.90
25410;DHT22;13339;50.840;4.346;2023-07-29T06:04:07;21.00;99.90
25410;DHT22;13339;50.840;4.346;2023-07-29T06:06:33;21.20;99.90
25410;DHT22;13339;50.840;4.346;2023-07-29T06:08:58;21.10;99.90
25410;DHT22;13339;50.840;4.346;2023-07-29T06:11:24;21.10;99.90
25410;DHT22;13339;50.840;4.346;2023-07-29T06:13:50;21.20;99.90
25410;DHT22;13339;50.840;4.346;2023-07-29T06:16:16;21.30;99.90
25410;DHT22;13339;50.840;4.346;2023-07-29T06:18:41;21.40;99.90
25410;DHT22;13339;50.840;4.346;2023-07-29T06:21:07;21.50;99.90
25410;DHT22;13339;50.840;4.346;2023-07-29T06:23:34;21.60;99.90
25410;DHT22;13339;50.840;4.346;2023-07-29T06:25:59;21.70;99.90
25410;DHT22;13339;50.840;4.346;2023-07-29T06:28:26;21.70;99.90
25410;DHT22;13339;50.840;4.346;2023-07-29T06:30:52;21.80;99.90
25410;DHT22;13339;50.840;4.346;2023-07-29T06:33:18;21.90;99.90
25410;DHT22;13339;50.840;4.346;2023-07-29T06:35:44;22.10;99.90
25410;DHT22;13339;50.840;4.346;2023-07-29T06:38:09;22.10;99.90
25410;DHT22;13339;50.840;4.346;2023-07-29T06:40:35;22.10;99.90
25410;DHT22;13339;50.840;4.346;2023-07-29T06:43:00;22.20;99.90
25410;DHT22;13339;50.840;4.346;2023-07-29T06:45:26;22.20;99.90
25410;DHT22;13339;50.840;4.346;2023-07-29T06:47:52;22.30;99.90
25410;DHT22;13339;50.840;4.346;2023-07-29T06:50:17;22.50;99.90
25410;DHT22;13339;50.840;4.346;2023-07-29T06:52:43;22.50;99.90
25410;DHT22;13339;50.840;4.346;2023-07-29T06:55:09;22.50;99.90
25410;DHT22;13339;50.840;4.346;2023-07-29T06:57:34;22.40;99.90
25410;DHT22;13339;50.840;4.346;2023-07-29T07:00:00;22.20;99.90
25410;DHT22;13339;50.840;4.346;2023-07-29T07:02:26;22.30;99.90
25410;DHT22;13339;50.840;4.346;2023-07-29T07:04:52;22.20;99.90
25410;DHT22;13339;50.840;4.346;2023-07-29T07:07:17;22.20;99.90
25410;DHT22;13339;50.840;4.346;2023-07-29T07:09:43;22.20;99.90
25410;DHT22;13339;50.840;4.346;2023-07-29T07:12:08;22.30;99.90
25410;DHT22;13339;50.840;4.346;2023-07-29T07:14:34;22.20;99.90
25410;DHT22;13339;50.840;4.346;2023-07-29T07:17:09;22.30;99.90
25410;DHT22;13339;50.840;4.346;2023-07-29T07:19:35;22.20;99.90
25410;DHT22;13339;50.840;4.346;2023-07-29T07:22:00;22.10;99.90
25410;DHT22;13339;50.840;4.346;2023-07-29T07:24:26;22.10;99.90
25410;DHT22;13339;50.840;4.346;2023-07-29T07:26:51;22.10;99.90
25410;DHT22;13339;50.840;4.346;2023-07-29T07:29:17;22.20;99.90
25410;DHT22;13339;50.840;4.346;2023-07-29T07:31:52;22.10;99.90
25410;DHT22;13339;50.840;4.346;2023-07-29T07:34:19;22.10;99.90
25410;DHT22;13339;50.840;4.346;2023-07-29T07:36:45;22.10;99.90
25410;DHT22;13339;50.840;4.346;2023-07-29T07:39:10;22.10;99.90
25410;DHT22;13339;50.840;4.346;2023-07-29T07:41:36;22.10;99.90
25410;DHT22;13339;50.840;4.346;2023-07-29T07:44:02;22.10;99.90
25410;DHT22;13339;50.840;4.346;2023-07-29T07:46:28;22.20;99.90
25410;DHT22;13339;50.840;4.346;2023-07-29T07:48:54;22.40;99.90
25410;DHT22;13339;50.840;4.346;2023-07-29T07:51:19;22.50;99.90
25410;DHT22;13339;50.840;4.346;2023-07-29T07:53:45;22.60;99.90
25410;DHT22;13339;50.840;4.346;2023-07-29T07:56:11;22.60;99.90
25410;DHT22;13339;50.840;4.346;2023-07-29T07:58:37;22.70;99.90
25410;DHT22;13339;50.840;4.346;2023-07-29T08:01:06;22.90;99.90
25410;DHT22;13339;50.840;4.346;2023-07-29T08:03:33;23.10;99.90
25410;DHT22;13339;50.840;4.346;2023-07-29T08:05:59;23.40;99.90
25410;DHT22;13339;50.840;4.346;2023-07-29T08:08:28;23.70;99.90
25410;DHT22;13339;50.840;4.346;2023-07-29T08:10:55;23.90;99.90
25410;DHT22;13339;50.840;4.346;2023-07-29T08:13:22;24.10;99.90
25410;DHT22;13339;50.840;4.346;2023-07-29T08:15:48;24.40;99.90
25410;DHT22;13339;50.840;4.346;2023-07-29T08:18:15;24.40;99.90
25410;DHT22;13339;50.840;4.346;2023-07-29T08:20:41;24.60;99.90
25410;DHT22;13339;50.840;4.346;2023-07-29T08:23:07;24.80;99.90
25410;DHT22;13339;50.840;4.346;2023-07-29T08:25:32;24.70;99.90
25410;DHT22;13339;50.840;4.346;2023-07-29T08:27:58;24.80;99.90
25410;DHT22;13339;50.840;4.346;2023-07-29T08:30:23;24.80;99.90
25410;DHT22;13339;50.840;4.346;2023-07-29T08:32:49;24.90;99.90
25410;DHT22;13339;50.840;4.346;2023-07-29T08:35:15;24.90;99.90
25410;DHT22;13339;50.840;4.346;2023-07-29T08:37:41;25.00;99.90
25410;DHT22;13339;50.840;4.346;2023-07-29T08:40:07;25.00;99.90
25410;DHT22;13339;50.840;4.346;2023-07-29T08:42:37;25.00;99.90
25410;DHT22;13339;50.840;4.346;2023-07-29T08:45:07;25.00;99.90
25410;DHT22;13339;50.840;4.346;2023-07-29T08:47:34;25.00;99.90
25410;DHT22;13339;50.840;4.346;2023-07-29T08:50:01;25.00;99.90
25410;DHT22;13339;50.840;4.346;2023-07-29T08:52:29;24.70;99.90
25410;DHT22;13339;50.840;4.346;2023-07-29T08:54:55;24.60;99.90
25410;DHT22;13339;50.840;4.346;2023-07-29T08:57:22;24.60;99.90
25410;DHT22;13339;50.840;4.346;2023-07-29T08:59:48;24.60;99.90
25410;DHT22;13339;50.840;4.346;2023-07-29T09:02:14;24.70;99.90
25410;DHT22;13339;50.840;4.346;2023-07-29T09:04:40;24.80;99.90
25410;DHT22;13339;50.840;4.346;2023-07-29T09:07:05;24.60;99.90
25410;DHT22;13339;50.840;4.346;2023-07-29T09:09:32;24.70;99.90
25410;DHT22;13339;50.840;4.346;2023-07-29T09:11:58;24.90;99.90
25410;DHT22;13339;50.840;4.346;2023-07-29T09:14:24;24.90;99.90
25410;DHT22;13339;50.840;4.346;2023-07-29T09:16:50;25.00;99.90
25410;DHT22;13339;50.840;4.346;2023-07-29T09:19:15;25.00;99.90
25410;DHT22;13339;50.840;4.346;2023-07-29T09:21:41;25.10;99.90
25410;DHT22;13339;50.840;4.346;2023-07-29T09:24:07;25.20;99.90
25410;DHT22;13339;50.840;4.346;2023-07-29T09:26:33;25.30;99.90
25410;DHT22;13339;50.840;4.346;2023-07-29T09:29:00;25.30;99.90
25410;DHT22;13339;50.840;4.346;2023-07-29T09:31:27;25.20;99.90
25410;DHT22;13339;50.840;4.346;2023-07-29T09:33:58;25.10;99.90
25410;DHT22;13339;50.840;4.346;2023-07-29T09:36:24;25.20;99.90
25410;DHT22;13339;50.840;4.346;2023-07-29T09:38:54;25.30;99.90
25410;DHT22;13339;50.840;4.346;2023-07-29T09:41:25;25.30;99.90
25410;DHT22;13339;50.840;4.346;2023-07-29T09:44:02;25.20;99.90
25410;DHT22;13339;50.840;4.346;2023-07-29T09:46:36;25.10;99.90
25410;DHT22;13339;50.840;4.346;2023-07-29T09:49:06;25.10;99.90
25410;DHT22;13339;50.840;4.346;2023-07-29T09:51:32;25.00;99.90
25410;DHT22;13339;50.840;4.346;2023-07-29T09:54:02;24.90;99.90
25410;DHT22;13339;50.840;4.346;2023-07-29T09:56:28;24.80;99.90
25410;DHT22;13339;50.840;4.346;2023-07-29T09:58:57;25.00;99.90
25410;DHT22;13339;50.840;4.346;2023-07-29T10:01:23;25.20;99.90
25410;DHT22;13339;50.840;4.346;2023-07-29T10:03:49;25.40;99.90
25410;DHT22;13339;50.840;4.346;2023-07-29T10:06:15;25.50;99.90
25410;DHT22;13339;50.840;4.346;2023-07-29T10:08:42;25.60;99.90
25410;DHT22;13339;50.840;4.346;2023-07-29T10:11:10;25.80;99.90
25410;DHT22;13339;50.840;4.346;2023-07-29T10:13:36;25.90;99.90
25410;DHT22;13339;50.840;4.346;2023-07-29T10:16:03;26.00;99.90
25410;DHT22;13339;50.840;4.346;2023-07-29T10:18:30;26.00;99.90
25410;DHT22;13339;50.840;4.346;2023-07-29T10:20:58;25.90;99.90
25410;DHT22;13339;50.840;4.346;2023-07-29T10:23:26;25.90;99.90
25410;DHT22;13339;50.840;4.346;2023-07-29T10:26:12;25.80;99.90
25410;DHT22;13339;50.840;4.346;2023-07-29T10:28:40;25.90;99.90
25410;DHT22;13339;50.840;4.346;2023-07-29T10:31:07;25.80;99.90
25410;DHT22;13339;50.840;4.346;2023-07-29T10:33:34;25.60;99.90
25410;DHT22;13339;50.840;4.346;2023-07-29T10:36:00;25.40;99.90
25410;DHT22;13339;50.840;4.346;2023-07-29T10:38:26;24.90;99.90
25410;DHT22;13339;50.840;4.346;2023-07-29T10:40:55;24.70;99.90
25410;DHT22;13339;50.840;4.346;2023-07-29T10:45:59;24.40;99.90
25410;DHT22;13339;50.840;4.346;2023-07-29T10:48:41;24.20;99.90
25410;DHT22;13339;50.840;4.346;2023-07-29T10:51:29;24.00;99.90
25410;DHT22;13339;50.840;4.346;2023-07-29T10:54:10;24.10;99.90
25410;DHT22;13339;50.840;4.346;2023-07-29T10:56:37;24.20;99.90
25410;DHT22;13339;50.840;4.346;2023-07-29T11:01:53;24.40;99.90
25410;DHT22;13339;50.840;4.346;2023-07-29T11:04:24;24.30;99.90
25410;DHT22;13339;50.840;4.346;2023-07-29T11:15:12;23.50;99.90
25410;DHT22;13339;50.840;4.346;2023-07-29T11:17:40;23.40;99.90
25410;DHT22;13339;50.840;4.346;2023-07-29T11:20:07;23.40;99.90
25410;DHT22;13339;50.840;4.346;2023-07-29T11:22:33;23.50;99.90
25410;DHT22;13339;50.840;4.346;2023-07-29T11:24:59;23.60;99.90
25410;DHT22;13339;50.840;4.346;2023-07-29T11:27:25;23.50;99.90
25410;DHT22;13339;50.840;4.346;2023-07-29T11:29:55;23.60;99.90
25410;DHT22;13339;50.840;4.346;2023-07-29T11:32:21;23.60;99.90
25410;DHT22;13339;50.840;4.346;2023-07-29T11:34:47;23.70;99.90
25410;DHT22;13339;50.840;4.346;2023-07-29T11:37:13;23.70;99.90
25410;DHT22;13339;50.840;4.346;2023-07-29T11:39:41;24.00;99.90
25410;DHT22;13339;50.840;4.346;2023-07-29T11:42:11;24.20;99.90
25410;DHT22;13339;50.840;4.346;2023-07-29T11:44:37;24.30;99.90
25410;DHT22;13339;50.840;4.346;2023-07-29T11:47:09;24.50;99.90
25410;DHT22;13339;50.840;4.346;2023-07-29T11:49:35;24.60;99.90
25410;DHT22;13339;50.840;4.346;2023-07-29T11:52:03;24.80;99.90
25410;DHT22;13339;50.840;4.346;2023-07-29T11:54:29;25.00;99.90
25410;DHT22;13339;50.840;4.346;2023-07-29T11:56:56;25.10;99.90
25410;DHT22;13339;50.840;4.346;2023-07-29T11:59:22;25.30;99.90
25410;DHT22;13339;50.840;4.346;2023-07-29T12:01:48;25.40;99.90
25410;DHT22;13339;50.840;4.346;2023-07-29T12:04:14;25.30;99.90
25410;DHT22;13339;50.840;4.346;2023-07-29T12:06:40;25.40;99.90
25410;DHT22;13339;50.840;4.346;2023-07-29T12:09:07;25.30;99.90
25410;DHT22;13339;50.840;4.346;2023-07-29T12:11:39;25.20;99.90
25410;DHT22;13339;50.840;4.346;2023-07-29T12:14:07;24.90;99.90
25410;DHT22;13339;50.840;4.346;2023-07-29T12:16:41;24.60;99.90
25410;DHT22;13339;50.840;4.346;2023-07-29T12:19:06;24.30;99.90
25410;DHT22;13339;50.840;4.346;2023-07-29T12:21:32;24.10;99.90
25410;DHT22;13339;50.840;4.346;2023-07-29T12:23:58;24.10;99.90
25410;DHT22;13339;50.840;4.346;2023-07-29T12:26:28;24.20;99.90
25410;DHT22;13339;50.840;4.346;2023-07-29T12:28:53;24.10;99.90
25410;DHT22;13339;50.840;4.346;2023-07-29T12:31:19;24.00;99.90
25410;DHT22;13339;50.840;4.346;2023-07-29T12:33:45;23.90;99.90
25410;DHT22;13339;50.840;4.346;2023-07-29T12:36:10;23.90;99.90
25410;DHT22;13339;50.840;4.346;2023-07-29T12:38:36;24.00;99.90
25410;DHT22;13339;50.840;4.346;2023-07-29T12:41:01;24.10;99.90
25410;DHT22;13339;50.840;4.346;2023-07-29T12:43:28;24.00;99.90
25410;DHT22;13339;50.840;4.346;2023-07-29T12:45:54;24.10;99.90
25410;DHT22;13339;50.840;4.346;2023-07-29T12:48:23;24.10;99.90
25410;DHT22;13339;50.840;4.346;2023-07-29T12:50:51;24.20;99.90
25410;DHT22;13339;50.840;4.346;2023-07-29T12:53:17;24.30;99.90
25410;DHT22;13339;50.840;4.346;2023-07-29T12:55:43;24.30;99.90
25410;DHT22;13339;50.840;4.346;2023-07-29T12:58:08;24.40;99.90
25410;DHT22;13339;50.840;4.346;2023-07-29T13:00:37;24.50;99.90
25410;DHT22;13339;50.840;4.346;2023-07-29T13:03:04;24.60;99.90
25410;DHT22;13339;50.840;4.346;2023-07-29T13:05:31;24.70;99.90
25410;DHT22;13339;50.840;4.346;2023-07-29T13:07:56;25.00;99.90
25410;DHT22;13339;50.840;4.346;2023-07-29T13:10:22;25.10;99.90
25410;DHT22;13339;50.840;4.346;2023-07-29T13:12:48;25.30;99.90
25410;DHT22;13339;50.840;4.346;2023-07-29T13:15:14;25.50;99.90
25410;DHT22;13339;50.840;4.346;2023-07-29T13:17:39;25.50;99.90
25410;DHT22;13339;50.840;4.346;2023-07-29T13:20:06;25.50;99.90
25410;DHT22;13339;50.840;4.346;2023-07-29T13:22:32;25.50;99.90
25410;DHT22;13339;50.840;4.346;2023-07-29T13:24:57;25.60;99.90
25410;DHT22;13339;50.840;4.346;2023-07-29T13:27:23;25.50;99.90
25410;DHT22;13339;50.840;4.346;2023-07-29T13:29:50;25.50;99.90
25410;DHT22;13339;50.840;4.346;2023-07-29T13:32:16;25.40;99.90
25410;DHT22;13339;50.840;4.346;2023-07-29T13:34:42;25.40;99.90
25410;DHT22;13339;50.840;4.346;2023-07-29T13:37:08;25.50;99.90
25410;DHT22;13339;50.840;4.346;2023-07-29T13:39:34;25.70;99.90
25410;DHT22;13339;50.840;4.346;2023-07-29T13:41:59;25.70;99.90
25410;DHT22;13339;50.840;4.346;2023-07-29T13:44:25;25.80;99.90
25410;DHT22;13339;50.840;4.346;2023-07-29T13:46:50;25.70;99.90
25410;DHT22;13339;50.840;4.346;2023-07-29T13:49:17;25.70;99.90
25410;DHT22;13339;50.840;4.346;2023-07-29T13:51:42;25.80;99.90
25410;DHT22;13339;50.840;4.346;2023-07-29T13:54:08;25.80;99.90
25410;DHT22;13339;50.840;4.346;2023-07-29T13:56:33;25.70;99.90
25410;DHT22;13339;50.840;4.346;2023-07-29T13:58:59;25.60;99.90
25410;DHT22;13339;50.840;4.346;2023-07-29T14:01:24;25.20;99.90
25410;DHT22;13339;50.840;4.346;2023-07-29T14:03:50;25.20;99.90
25410;DHT22;13339;50.840;4.346;2023-07-29T14:06:16;25.10;99.90
25410;DHT22;13339;50.840;4.346;2023-07-29T14:08:41;25.20;99.90
25410;DHT22;13339;50.840;4.346;2023-07-29T14:11:07;25.40;99.90
25410;DHT22;13339;50.840;4.346;2023-07-29T14:13:33;25.50;99.90
25410;DHT22;13339;50.840;4.346;2023-07-29T14:16:01;25.70;99.90
25410;DHT22;13339;50.840;4.346;2023-07-29T14:18:27;25.80;99.90
25410;DHT22;13339;50.840;4.346;2023-07-29T14:20:53;25.90;99.90
25410;DHT22;13339;50.840;4.346;2023-07-29T14:23:21;26.00;99.90
25410;DHT22;13339;50.840;4.346;2023-07-29T14:25:46;26.00;99.90
25410;DHT22;13339;50.840;4.346;2023-07-29T14:28:13;26.10;99.90
25410;DHT22;13339;50.840;4.346;2023-07-29T14:30:39;26.20;99.90
25410;DHT22;13339;50.840;4.346;2023-07-29T14:33:06;26.20;99.90
25410;DHT22;13339;50.840;4.346;2023-07-29T14:35:33;26.20;99.90
25410;DHT22;13339;50.840;4.346;2023-07-29T14:37:59;26.20;99.90
25410;DHT22;13339;50.840;4.346;2023-07-29T14:40:24;26.10;99.90
25410;DHT22;13339;50.840;4.346;2023-07-29T14:42:50;26.20;99.90
25410;DHT22;13339;50.840;4.346;2023-07-29T14:45:15;26.30;99.90
25410;DHT22;13339;50.840;4.346;2023-07-29T14:47:41;26.40;99.90
25410;DHT22;13339;50.840;4.346;2023-07-29T14:50:07;26.40;99.90
25410;DHT22;13339;50.840;4.346;2023-07-29T14:52:33;26.40;99.90
25410;DHT22;13339;50.840;4.346;2023-07-29T14:54:58;26.30;99.90
25410;DHT22;13339;50.840;4.346;2023-07-29T14:57:24;26.20;99.90
25410;DHT22;13339;50.840;4.346;2023-07-29T14:59:49;26.20;99.90
25410;DHT22;13339;50.840;4.346;2023-07-29T15:02:17;26.20;99.90
25410;DHT22;13339;50.840;4.346;2023-07-29T15:04:43;26.10;99.90
25410;DHT22;13339;50.840;4.346;2023-07-29T15:07:09;26.00;99.90
25410;DHT22;13339;50.840;4.346;2023-07-29T15:09:34;26.00;99.90
25410;DHT22;13339;50.840;4.346;2023-07-29T15:12:00;26.20;99.90
25410;DHT22;13339;50.840;4.346;2023-07-29T15:14:26;26.30;99.90
25410;DHT22;13339;50.840;4.346;2023-07-29T15:16:51;26.40;99.90
25410;DHT22;13339;50.840;4.346;2023-07-29T15:19:17;26.60;99.90
25410;DHT22;13339;50.840;4.346;2023-07-29T15:21:42;26.50;99.90
25410;DHT22;13339;50.840;4.346;2023-07-29T15:24:08;26.50;99.90
25410;DHT22;13339;50.840;4.346;2023-07-29T15:26:34;26.50;99.90
25410;DHT22;13339;50.840;4.346;2023-07-29T15:29:02;26.60;99.90
25410;DHT22;13339;50.840;4.346;2023-07-29T15:31:27;26.50;99.90
25410;DHT22;13339;50.840;4.346;2023-07-29T15:33:53;26.50;99.90
25410;DHT22;13339;50.840;4.346;2023-07-29T15:36:18;26.40;99.90
25410;DHT22;13339;50.840;4.346;2023-07-29T15:38:44;26.20;99.90
25410;DHT22;13339;50.840;4.346;2023-07-29T15:41:11;26.10;99.90
25410;DHT22;13339;50.840;4.346;2023-07-29T15:43:36;25.90;99.90